createdAt,value
2018-06-05T00:01:48.272Z,10.00
2018-06-05T00:04:16.584Z,10.30
2018-06-05T00:06:44.843Z,11.47
2018-06-05T00:09:13.240Z,10.60
2018-06-05T00:11:41.515Z,9.70
2018-06-05T00:14:09.801Z,9.70
2018-06-05T00:16:38.095Z,11.27
2018-06-05T00:19:06.377Z,11.13
2018-06-05T00:21:34.720Z,10.90
2018-06-05T00:24:03.038Z,11.40
2018-06-05T00:26:31.353Z,11.40
2018-06-05T00:28:59.600Z,11.60
2018-06-05T00:31:27.904Z,10.63
2018-06-05T00:33:56.180Z,11.23
2018-06-05T00:36:24.446Z,11.30
2018-06-05T00:38:52.704Z,10.97
2018-06-05T00:41:21.340Z,11.40
2018-06-05T00:43:49.696Z,11.73
2018-06-05T00:46:17.969Z,12.00
2018-06-05T00:48:48.459Z,11.80
2018-06-05T00:51:28.092Z,12.00
2018-06-05T00:53:56.400Z,11.70
2018-06-05T00:56:24.737Z,11.70
2018-06-05T00:58:53.792Z,12.40
2018-06-05T01:01:22.117Z,11.27
2018-06-05T01:03:50.492Z,11.53
2018-06-05T01:06:18.835Z,10.33
2018-06-05T01:08:47.109Z,12.67
2018-06-05T01:11:15.393Z,12.53
2018-06-05T01:13:43.765Z,11.80
2018-06-05T01:16:12.270Z,15.20
2018-06-05T01:18:40.625Z,11.77
2018-06-05T01:21:09.114Z,11.40
2018-06-05T01:23:37.380Z,12.30
2018-06-05T01:26:05.772Z,11.10
2018-06-05T01:28:34.489Z,11.03
2018-06-05T01:31:02.768Z,10.40
2018-06-05T01:33:31.116Z,11.73
2018-06-05T01:35:59.492Z,11.97
2018-06-05T01:38:27.772Z,11.10
2018-06-05T01:40:56.068Z,11.33
2018-06-05T01:43:24.335Z,11.10
2018-06-05T01:45:52.699Z,11.50
2018-06-05T01:48:20.969Z,14.83
2018-06-05T01:50:49.231Z,11.43
2018-06-05T01:53:17.504Z,10.67
2018-06-05T01:55:45.758Z,11.40
2018-06-05T01:58:14.069Z,11.93
2018-06-05T02:00:42.357Z,12.97
2018-06-05T02:03:11.426Z,9.70
2018-06-05T02:05:39.675Z,9.23
2018-06-05T02:08:08.067Z,9.70
2018-06-05T02:10:36.359Z,9.83
2018-06-05T02:13:04.641Z,11.00
2018-06-05T02:15:32.925Z,11.23
2018-06-05T02:18:01.181Z,9.20
2018-06-05T02:20:29.469Z,9.20
2018-06-05T02:22:57.753Z,7.70
2018-06-05T02:25:26.065Z,7.60
2018-06-05T02:27:54.405Z,8.47
2018-06-05T02:30:22.669Z,6.43
2018-06-05T02:32:50.921Z,7.30
2018-06-05T02:35:19.177Z,7.60
2018-06-05T02:37:47.464Z,9.37
2018-06-05T02:40:15.717Z,8.87
2018-06-05T02:42:44.669Z,8.63
2018-06-05T02:45:12.969Z,10.60
2018-06-05T02:47:41.831Z,9.87
2018-06-05T02:50:10.089Z,10.30
2018-06-05T02:52:38.412Z,9.20
2018-06-05T02:55:06.715Z,6.33
2018-06-05T02:57:35.044Z,8.57
2018-06-05T03:00:03.314Z,9.60
2018-06-05T03:02:31.611Z,9.50
2018-06-05T03:04:59.974Z,9.80
2018-06-05T03:07:28.252Z,9.73
2018-06-05T03:09:56.648Z,9.43
2018-06-05T03:12:25.842Z,9.47
2018-06-05T03:14:54.220Z,9.40
2018-06-05T03:17:22.492Z,8.63
2018-06-05T03:19:50.769Z,12.90
2018-06-05T03:22:19.051Z,5.63
2018-06-05T03:24:47.311Z,7.93
2018-06-05T03:27:15.561Z,4.00
2018-06-05T03:29:44.105Z,3.00
2018-06-05T03:32:12.389Z,4.40
2018-06-05T03:34:40.639Z,4.53
2018-06-05T03:37:08.897Z,3.90
2018-06-05T03:39:37.141Z,10.18
2018-06-05T03:42:05.449Z,4.80
2018-06-05T03:44:33.723Z,4.50
2018-06-05T03:47:01.998Z,3.20
2018-06-05T03:49:34.416Z,4.70
2018-06-05T03:52:02.762Z,3.57
2018-06-05T03:54:31.028Z,4.40
2018-06-05T03:56:59.290Z,4.23
2018-06-05T03:59:27.582Z,4.90
2018-06-05T04:01:55.836Z,4.57
2018-06-05T04:04:24.163Z,4.70
2018-06-05T04:06:52.616Z,5.20
2018-06-05T04:09:20.858Z,5.23
2018-06-05T04:11:49.220Z,3.13
2018-06-05T04:14:17.503Z,4.07
2018-06-05T04:16:45.823Z,4.90
2018-06-05T04:19:14.112Z,4.23
2018-06-05T04:21:42.361Z,3.03
2018-06-05T04:24:11.102Z,5.40
2018-06-05T04:26:39.458Z,3.80
2018-06-05T04:29:07.893Z,16.50
2018-06-05T04:31:36.201Z,16.20
2018-06-05T04:34:04.697Z,16.60
2018-06-05T04:36:33.064Z,26.60
2018-06-05T04:39:01.617Z,18.80
2018-06-05T04:41:29.935Z,16.10
2018-06-05T04:43:58.208Z,12.03
2018-06-05T04:46:26.475Z,10.10
2018-06-05T04:48:55.101Z,13.63
2018-06-05T04:51:23.373Z,13.63
2018-06-05T04:53:51.733Z,9.90
2018-06-05T04:56:19.997Z,8.50
2018-06-05T04:58:48.392Z,5.20
2018-06-05T05:01:16.648Z,8.17
2018-06-05T05:03:44.941Z,6.23
2018-06-05T05:06:13.192Z,7.73
2018-06-05T05:08:41.436Z,5.27
2018-06-05T05:11:09.764Z,6.70
2018-06-05T05:13:38.136Z,6.03
2018-06-05T05:16:06.402Z,6.00
2018-06-05T05:18:34.668Z,6.83
2018-06-05T05:21:02.997Z,8.50
2018-06-05T05:23:31.327Z,6.60
2018-06-05T05:25:59.651Z,5.43
2018-06-05T05:28:27.903Z,5.90
2018-06-05T05:30:56.465Z,6.67
2018-06-05T05:33:24.761Z,11.50
2018-06-05T05:35:53.099Z,6.73
2018-06-05T05:38:21.405Z,6.80
2018-06-05T05:40:49.681Z,7.23
2018-06-05T05:43:17.949Z,10.10
2018-06-05T05:45:46.220Z,6.03
2018-06-05T05:48:14.524Z,7.83
2018-06-05T05:50:42.773Z,5.23
2018-06-05T05:53:11.057Z,12.40
2018-06-05T05:55:39.317Z,13.03
2018-06-05T05:58:07.608Z,13.63
2018-06-05T06:00:35.896Z,14.53
2018-06-05T06:03:04.160Z,12.23
2018-06-05T06:05:32.420Z,12.70
2018-06-05T06:08:00.710Z,13.63
2018-06-05T06:10:29.013Z,14.33
2018-06-05T06:12:57.385Z,14.83
2018-06-05T06:15:25.957Z,13.07
2018-06-05T06:17:54.250Z,13.10
2018-06-05T06:20:22.508Z,12.10
2018-06-05T06:22:51.069Z,13.47
2018-06-05T06:25:19.373Z,12.60
2018-06-05T06:27:47.638Z,22.43
2018-06-05T06:30:15.930Z,10.00
2018-06-05T06:32:44.357Z,8.93
2018-06-05T06:35:12.637Z,7.57
2018-06-05T06:37:40.960Z,11.77
2018-06-05T06:40:09.249Z,16.60
2018-06-05T06:42:38.130Z,7.80
2018-06-05T06:45:06.464Z,7.03
2018-06-05T06:47:34.750Z,6.03
2018-06-05T06:50:03.104Z,7.97
2018-06-05T06:52:31.361Z,7.63
2018-06-05T06:55:00.479Z,7.33
2018-06-05T06:57:28.805Z,7.93
2018-06-05T06:59:57.057Z,6.60
2018-06-05T07:02:25.347Z,8.13
2018-06-05T07:04:53.613Z,7.90
2018-06-05T07:07:21.877Z,6.33
2018-06-05T07:09:50.141Z,8.63
2018-06-05T07:12:18.425Z,6.07
2018-06-05T07:14:46.756Z,6.87
2018-06-05T07:17:15.125Z,7.00
2018-06-05T07:19:43.376Z,10.87
2018-06-05T07:22:11.621Z,3.60
2018-06-05T07:24:40.060Z,8.80
2018-06-05T07:27:08.310Z,4.33
2018-06-05T07:29:36.567Z,4.37
2018-06-05T07:32:04.920Z,4.67
2018-06-05T07:34:33.236Z,5.60
2018-06-05T07:37:01.625Z,5.43
2018-06-05T07:39:29.908Z,5.00
2018-06-05T07:41:58.166Z,7.93
2018-06-05T07:44:26.516Z,5.63
2018-06-05T07:46:54.839Z,4.40
2018-06-05T07:49:23.093Z,5.60
2018-06-05T07:51:51.341Z,9.33
2018-06-05T07:54:19.605Z,6.53
2018-06-05T07:56:47.858Z,5.90
2018-06-05T07:59:16.723Z,8.27
2018-06-05T08:01:45.017Z,13.63
2018-06-05T08:04:13.389Z,3.33
2018-06-05T08:06:41.843Z,5.83
2018-06-05T08:09:10.157Z,6.70
2018-06-05T08:11:38.413Z,4.00
2018-06-05T08:14:06.661Z,3.90
2018-06-05T08:16:34.976Z,5.53
2018-06-05T08:19:03.259Z,5.60
2018-06-05T08:21:31.617Z,8.20
2018-06-05T08:23:59.873Z,3.67
2018-06-05T08:26:49.016Z,4.27
2018-06-05T08:29:17.964Z,3.83
2018-06-05T08:31:46.692Z,5.43
2018-06-05T08:34:15.017Z,10.03
2018-06-05T08:36:43.298Z,5.83
2018-06-05T08:39:11.896Z,4.93
2018-06-05T08:41:40.152Z,5.17
2018-06-05T08:44:08.736Z,4.07
2018-06-05T08:46:37.000Z,4.50
2018-06-05T08:49:05.284Z,5.40
2018-06-05T08:51:33.580Z,4.43
2018-06-05T08:54:01.943Z,4.33
2018-06-05T08:56:30.219Z,5.43
2018-06-05T08:58:58.529Z,4.67
2018-06-05T09:01:26.842Z,4.57
2018-06-05T09:03:55.159Z,5.13
2018-06-05T09:06:23.421Z,4.23
2018-06-05T09:08:51.693Z,5.93
2018-06-05T09:11:19.937Z,8.57
2018-06-05T09:13:48.355Z,5.00
2018-06-05T09:16:16.629Z,6.00
2018-06-05T09:18:44.905Z,4.40
2018-06-05T09:21:13.213Z,8.20
2018-06-05T09:23:41.473Z,6.83
2018-06-05T09:26:09.921Z,3.13
2018-06-05T09:28:38.282Z,4.70
2018-06-05T09:31:06.589Z,6.40
2018-06-05T09:33:34.984Z,5.50
2018-06-05T09:36:03.325Z,5.90
2018-06-05T09:38:31.625Z,4.43
2018-06-05T09:40:59.900Z,4.60
2018-06-05T09:43:28.196Z,6.17
2018-06-05T09:45:56.560Z,5.40
2018-06-05T09:48:24.828Z,5.80
2018-06-05T09:50:53.115Z,6.27
2018-06-05T09:53:21.365Z,3.03
2018-06-05T09:55:49.616Z,6.60
2018-06-05T09:58:18.415Z,5.20
2018-06-05T10:00:51.800Z,4.17
2018-06-05T10:03:21.395Z,5.63
2018-06-05T10:05:50.352Z,3.40
2018-06-05T10:08:18.618Z,4.27
2018-06-05T10:10:47.134Z,4.60
2018-06-05T10:13:15.386Z,5.80
2018-06-05T10:15:43.773Z,4.93
2018-06-05T10:18:12.020Z,4.73
2018-06-05T10:20:40.321Z,4.80
2018-06-05T10:23:08.605Z,3.23
2018-06-05T10:25:36.989Z,4.13
2018-06-05T10:28:05.724Z,5.83
2018-06-05T10:30:34.425Z,6.10
2018-06-05T10:33:02.731Z,5.47
2018-06-05T10:35:30.985Z,4.27
2018-06-05T10:37:59.309Z,4.47
2018-06-05T10:40:27.904Z,4.40
2018-06-05T10:42:56.236Z,4.90
2018-06-05T10:45:24.505Z,5.27
2018-06-05T10:47:52.768Z,6.60
2018-06-05T10:50:21.016Z,3.30
2018-06-05T10:52:49.268Z,4.43
2018-06-05T10:55:18.128Z,6.13
2018-06-05T10:57:46.500Z,4.30
2018-06-05T11:00:15.380Z,7.50
2018-06-05T11:02:43.692Z,4.53
2018-06-05T11:05:12.016Z,6.07
2018-06-05T11:07:40.286Z,5.43
2018-06-05T11:10:08.633Z,4.57
2018-06-05T11:12:36.994Z,6.67
2018-06-05T11:15:05.670Z,5.40
2018-06-05T11:17:33.911Z,4.47
2018-06-05T11:20:02.218Z,7.30
2018-06-05T11:22:30.495Z,6.47
2018-06-05T11:24:58.783Z,5.50
2018-06-05T11:27:27.026Z,8.07
2018-06-05T11:29:55.285Z,8.40
2018-06-05T11:32:23.585Z,12.33
2018-06-05T11:34:51.877Z,10.67
2018-06-05T11:37:20.145Z,11.60
2018-06-05T11:39:48.531Z,13.53
2018-06-05T11:42:17.116Z,16.33
2018-06-05T11:44:45.384Z,12.83
2018-06-05T11:47:13.677Z,16.70
2018-06-05T11:49:42.058Z,18.47
2018-06-05T11:52:10.936Z,19.80
2018-06-05T11:54:39.205Z,18.60
2018-06-05T11:57:07.484Z,17.50
2018-06-05T11:59:35.760Z,17.50
2018-06-05T12:02:04.057Z,18.82
2018-06-05T12:04:32.333Z,21.65
2018-06-05T12:07:00.738Z,22.05
2018-06-05T12:09:29.180Z,24.50
2018-06-05T12:11:57.444Z,19.95
2018-06-05T12:14:25.736Z,22.65
2018-06-05T12:16:53.995Z,25.80
2018-06-05T12:19:22.258Z,21.85
2018-06-05T12:21:50.508Z,26.52
2018-06-05T12:24:18.821Z,22.25
2018-06-05T12:26:47.199Z,20.68
2018-06-05T12:29:15.486Z,27.93
2018-06-05T12:31:43.782Z,29.55
2018-06-05T12:34:12.149Z,22.00
2018-06-05T12:36:40.525Z,28.32
2018-06-05T12:39:09.474Z,26.60
2018-06-05T12:41:38.098Z,28.95
2018-06-05T12:44:06.608Z,29.82
2018-06-05T12:46:34.976Z,29.82
2018-06-05T12:49:03.912Z,31.70
2018-06-05T12:51:32.221Z,26.80
2018-06-05T12:54:00.617Z,24.43
2018-06-05T12:56:28.880Z,26.90
2018-06-05T12:58:57.147Z,27.02
2018-06-05T13:01:25.450Z,26.17
2018-06-05T13:03:53.808Z,24.05
2018-06-05T13:06:22.056Z,28.85
2018-06-05T13:08:50.380Z,32.88
2018-06-05T13:11:18.640Z,15.53
2018-06-05T13:13:46.879Z,4.42
2018-06-05T13:16:15.177Z,4.10
2018-06-05T13:18:43.555Z,4.58
2018-06-05T13:21:11.837Z,4.17
2018-06-05T13:23:40.133Z,4.37
2018-06-05T13:26:08.401Z,3.70
2018-06-05T13:28:36.766Z,3.92
2018-06-05T13:31:05.169Z,4.22
2018-06-05T13:33:33.525Z,3.95
2018-06-05T13:36:02.157Z,3.50
2018-06-05T13:38:30.504Z,3.75
2018-06-05T13:40:58.987Z,4.28
2018-06-05T13:43:27.353Z,3.98
2018-06-05T13:45:55.746Z,3.95
2018-06-05T13:48:24.040Z,4.20
2018-06-05T13:50:52.308Z,4.30
2018-06-05T13:53:20.669Z,3.87
2018-06-05T13:55:48.913Z,3.70
2018-06-05T13:58:17.211Z,2.95
2018-06-05T14:00:45.492Z,3.42
2018-06-05T14:03:13.764Z,3.10
2018-06-05T14:05:42.018Z,3.85
2018-06-05T14:08:10.277Z,3.45
2018-06-05T14:10:39.108Z,3.37
2018-06-05T14:13:07.532Z,3.10
2018-06-05T14:15:35.964Z,3.40
2018-06-05T14:18:04.249Z,3.22
2018-06-05T14:20:32.892Z,3.20
2018-06-05T14:23:01.184Z,3.20
2018-06-05T14:25:29.478Z,3.50
2018-06-05T14:27:57.861Z,3.40
2018-06-05T14:30:26.137Z,3.90
2018-06-05T14:32:54.375Z,4.03
2018-06-05T14:35:22.735Z,3.62
2018-06-05T14:37:51.105Z,3.52
2018-06-05T14:40:19.445Z,3.95
2018-06-05T14:42:47.717Z,3.60
2018-06-05T14:45:16.164Z,3.92
2018-06-05T14:47:44.883Z,3.70
2018-06-05T14:50:13.200Z,3.35
2018-06-05T14:52:41.461Z,3.90
2018-06-05T14:55:09.795Z,4.10
2018-06-05T14:57:38.041Z,4.17
2018-06-05T15:00:06.389Z,3.70
2018-06-05T15:02:34.749Z,3.60
2018-06-05T15:05:03.241Z,3.90
2018-06-05T15:07:31.631Z,3.60
2018-06-05T15:09:59.896Z,3.70
2018-06-05T15:12:28.153Z,4.60
2018-06-05T15:14:56.444Z,3.70
2018-06-05T15:17:24.708Z,3.30
2018-06-05T15:19:53.385Z,2.90
2018-06-05T15:22:21.666Z,3.55
2018-06-05T15:24:49.947Z,3.15
2018-06-05T15:27:18.221Z,3.10
2018-06-05T15:29:46.600Z,3.30
2018-06-05T15:32:15.019Z,2.85
2018-06-05T15:34:43.364Z,2.87
2018-06-05T15:37:12.383Z,2.67
2018-06-05T15:39:40.726Z,3.08
2018-06-05T15:42:09.001Z,3.00
2018-06-05T15:44:38.304Z,2.77
2018-06-05T15:47:07.304Z,3.50
2018-06-05T15:49:35.586Z,3.02
2018-06-05T15:52:03.975Z,3.40
2018-06-05T15:54:32.326Z,3.50
2018-06-05T15:57:00.605Z,4.65
2018-06-05T15:59:28.905Z,9.30
2018-06-05T16:01:57.161Z,5.05
2018-06-05T16:04:25.437Z,5.50
2018-06-05T16:06:53.707Z,4.72
2018-06-05T16:09:21.957Z,4.00
2018-06-05T16:11:50.255Z,4.40
2018-06-05T16:14:18.512Z,3.90
2018-06-05T16:16:46.812Z,4.70
2018-06-05T16:19:15.087Z,4.30
2018-06-05T16:21:43.397Z,7.45
2018-06-05T16:24:12.259Z,4.83
2018-06-05T16:26:40.640Z,4.17
2018-06-05T16:29:08.954Z,4.93
2018-06-05T16:31:37.238Z,4.80
2018-06-05T16:34:05.724Z,4.97
2018-06-05T16:36:34.014Z,5.23
2018-06-05T16:39:02.278Z,6.73
2018-06-05T16:41:30.561Z,6.13
2018-06-05T16:43:58.827Z,5.33
2018-06-05T16:46:27.161Z,5.13
2018-06-05T16:48:55.449Z,5.70
2018-06-05T16:51:23.825Z,5.53
2018-06-05T16:53:52.713Z,6.30
2018-06-05T16:56:21.305Z,5.90
2018-06-05T16:58:49.604Z,5.97
2018-06-05T17:01:17.949Z,6.50
2018-06-05T17:03:46.233Z,6.07
2018-06-05T17:06:14.628Z,6.23
2018-06-05T17:08:43.021Z,6.43
2018-06-05T17:11:11.548Z,6.03
2018-06-05T17:13:39.863Z,6.80
2018-06-05T17:16:08.218Z,7.33
2018-06-05T17:18:36.606Z,7.80
2018-06-05T17:21:04.896Z,7.23
2018-06-05T17:23:33.163Z,8.03
2018-06-05T17:26:01.527Z,6.67
2018-06-05T17:28:29.912Z,8.70
2018-06-05T17:30:58.671Z,8.30
2018-06-05T17:33:26.970Z,6.70
2018-06-05T17:35:55.436Z,8.90
2018-06-05T17:38:23.700Z,7.70
2018-06-05T17:40:52.098Z,13.37
2018-06-05T17:43:20.381Z,10.63
2018-06-05T17:45:48.804Z,8.70
2018-06-05T17:48:17.129Z,9.20
2018-06-05T17:50:45.416Z,8.00
2018-06-05T17:53:13.791Z,8.00
2018-06-05T17:55:42.173Z,8.87
2018-06-05T17:58:10.553Z,9.37
2018-06-05T18:00:38.912Z,9.43
2018-06-05T18:03:07.209Z,8.13
2018-06-05T18:05:35.570Z,9.50
2018-06-05T18:08:03.856Z,9.80
2018-06-05T18:10:32.243Z,9.97
2018-06-05T18:13:00.625Z,10.50
2018-06-05T18:15:28.920Z,9.93
2018-06-05T18:17:57.259Z,10.10
2018-06-05T18:20:25.553Z,9.50
2018-06-05T18:22:53.900Z,9.97
2018-06-05T18:25:22.160Z,9.40
2018-06-05T18:27:50.506Z,9.30
2018-06-05T18:30:18.842Z,9.90
2018-06-05T18:32:47.222Z,5.20
2018-06-05T18:40:10.740Z,4.28
2018-06-05T18:42:39.012Z,4.65
2018-06-05T18:57:25.224Z,9.68
2018-06-05T18:59:53.537Z,6.93
2018-06-05T19:02:21.815Z,9.77
2018-06-05T19:04:50.108Z,9.37
2018-06-05T19:07:18.377Z,8.77
2018-06-05T19:09:46.644Z,13.60
2018-06-05T19:12:14.936Z,13.90
2018-06-05T19:14:43.306Z,10.03
2018-06-05T19:17:11.575Z,8.20
2018-06-05T19:19:39.841Z,4.73
2018-06-05T19:22:08.090Z,4.23
2018-06-05T19:24:36.532Z,4.67
2018-06-05T19:27:04.908Z,6.17
2018-06-05T19:29:33.330Z,3.57
2018-06-05T19:32:01.787Z,6.87
2018-06-05T19:34:30.077Z,4.13
